Terminal Aerodrome Forecast
Issued by NWS Spokane, WA

Home | Current Version | Previous Version | Text Only | Print | Product List | Glossary On
Versions: 1 2 3 4 5 6 7 8 9 10 11 12 13 14 15 16 17 18 19 20 21 22 23 24 25 26
000
FTUS46 KOTX 061734
TAFGEG
TAF
KGEG 061734Z 0618/0718 21005KT P6SM FEW050
     FM062100 30008KT P6SM SCT070
     FM070300 34005KT P6SM SCT150
     FM070900 03008KT P6SM SCT150=

USA.gov is the U.S. government's official web portal to all federal, state and local government web resources and services.